Tateville, KY

3:56 AM EDT on July 14, 2014 (GMT -0400)
KKYBURNS2 Elev 1200 ft | 36.90 °N, 84.56 °W | Change Station

Current weather conditions updated 8 seconds ago

Scattered Clouds
Scattered Clouds
74.3 °F
Feels Like 77 °F
N
0.0
Wind Variable Wind from North
Gusts 0.0 mph

Today is forecast to be Much Cooler than yesterday. Thunderstorms, some may contain heavy rain.

Today
High -- | Low -- °F
--% Chance of Precip.
Yesterday
High -- | Low -- °F
Precip. -- in
6:29 AM 8:58 PM
Waning Gibbous, 95% visible
Pressure 29.99 in
Visibility 10.0 miles
Clouds Scattered Clouds 9500 ft
Heat Index 77 °F
Dew Point 48 °F
Humidity 39%
Rainfall 0.00 in
Snow Depth Not available.
UV 0 out of 12
Pollen 3.70 out of 12
Air Quality Not available.
Flu Activity Sporadic
METAR KSME 140735Z AUTO 00000KT 10SM SCT095 24/20 A2999 RMK AO2 LTG DSNT N

More Conditions Fewer Conditions

Pressure 29.99 in
Visibility 10.0 miles
Clouds Scattered Clouds 9500 ft
Heat Index 77 °F
Dew Point 48 °F
Humidity 39%
Rainfall 0.00 in
Snow Depth Not available.
UV 0 out of 12
Pollen 3.70 out of 12
Air Quality Not available.
Flu Activity Sporadic
METAR KSME 140735Z AUTO 00000KT 10SM SCT095 24/20 A2999 RMK AO2 LTG DSNT N

More Conditions Fewer Conditions

10-Day Weather Forecast

Almanac

Astronomy

Jul. 14, 2014 Rise Set
Actual Time 6:29 AM EDT 8:58 PM EDT
Civil Twilight 5:59 AM EDT 9:28 PM EDT
Nautical Twilight 5:22 AM EDT 10:05 PM EDT
Astronomical Twilight 4:41 AM EDT 10:46 PM EDT
Moon 10:33 PM EDT 9:06 AM EDT
Length of Visible Light 15h 28m
Length of Day
14h 28m
Tomorrow will be 1m 11s shorter.
Waning Gibbous, 95% of the Moon is Illuminated
Today
Waning Gibbous
Jul 18
Last Quarter
Jul 26
New
Aug 3
First Quarter
Aug 10
Full

Today's Extremes

State Highs State Lows

Community

WunderPhotos

Upload Photos

1,733,572 photos uploaded!

Nearby

Snow Depth

Station Depth Elevation
No new snow has been reported.

Earthquake Activity

City Distance Mag. Time & Date
No recent earthquake activity has been reported nearby.
Minimum magnitude displayed is 2.5.

Coastal Water Temperatures

Place Temperature
No Stations Reporting

Nearby Weather Stations

Station Location Temp. Heat Index Dew Point Humidity Wind Precip. Elev Updated Type
Burnside, KY 74.3 °F 77 °F 48 °F 39% North  at  0.0 mph 0.00 in / hr 1200 ft 3:56 AM EDT Rapid Fire
RAWS SOMERSET KY, Ferguson, KY 78 °F 80 °F 71 °F 78% South  at  4 mph 0.00 in / hr 920 ft 3:01 AM EDT MADIS
Clover Pointe, Somerset, KY 78.8 °F 82 °F 74 °F 84% SSW  at  7.6 mph 0.00 in / hr 991 ft 3:56 AM EDT Rapid Fire
RMR - Somerset, Ferguson, KY 75.0 °F 74 °F 72 °F 90% SSW  at  0.0 mph 0.00 in / hr 909 ft 3:54 AM EDT Normal
Colonial Estates, Monticello, KY 76.8 °F 78 °F 71 °F 81% North  at  0.0 mph 0.00 in / hr 1004 ft 3:55 AM EDT Normal
HALLS BACKYARD WEATHER, SCIENCE HILL, KY 74.6 °F 75 °F 68 °F 81% NW  at  0.0 mph 0.00 in / hr 1076 ft 3:55 AM EDT Normal

Show More Stations Show Fewer Stations